YUKO2: Yukon 2NNE(N Canadian R)

Data processed at Sat Nov 17 2018 22:32


All information presented herein is the property of the government of the United States of America and may be revised or deleted at any time without prior notice.
Dissemination of this information without the expressed written consent of the Public Affairs Office, Tulsa District U.S. Army Corps of Engineers is strictly prohibited.
These data are gathered electronically and, as presented, have not undergone any form of quality control. These data are not guaranteed to be valid or correct.
Go to home page.
Go to station list.
Go to home page.

Upstream stations:

Downstream station:
Previous Day
Next Day
Current Day
    
SHEF ID:       YUKO2     North Canadian River near Yukon,
STATION TYPE:  

                STAGE  STAGE(2)  RIV-FLOW  WTR-TEMP   CONDUCT  BAT-LOAD
                   ft        ft       cfs         F   umho/cm      volt
              Ccp-Rev   Ccp-Rev   Ccp-Rev   Ccp-Rev   Ccp-Rev   Ccp-Rev
(US/Central)
11/17 00:00      4.20      ----       714     44.10      1527     12.89
11/17 01:00      4.20      ----       714     43.97      1525     12.83
11/17 02:00      4.22      ----       720     43.86      1522     12.83
11/17 03:00      4.24      ----       726     43.74      1520     12.83
11/17 04:00      4.24      ----       726     43.63      1521     12.83
11/17 05:00      4.22      ----       720     43.56      1529     12.77
11/17 06:00      4.21      ----       717     43.48      1525     12.77
11/17 07:00      4.18      ----       708     43.39      1523     12.77
11/17 08:00      4.17      ----       705     43.32      1528     12.77
11/17 09:00      4.10      ----       684     43.36      1521     13.24
11/17 10:00      4.04      ----       667     43.50      1522     14.53
11/17 11:00      3.97      ----       646     43.86      1499     14.59
11/17 12:00      3.92      ----       630     44.37      1520     14.41
11/17 13:00      3.85      ----       609     44.87      1537     14.35
11/17 14:00      3.80      ----       594     45.28      1530     14.06
11/17 15:00      3.72      ----       570     45.57      1522     14.30
11/17 16:00      3.66      ----       552     45.68      1516     14.35
11/17 17:00      3.63      ----       543     45.61      1512     14.12
11/17 18:00      3.56      ----       523     45.50      1506     13.59
11/17 19:00      3.48      ----       500     45.43      1501     13.30
11/17 20:00      3.44      ----       489     45.36      1498     13.12
11/17 21:00      3.40      ----       478     45.28      1500     12.95
11/17 22:00      ----      ----      ----      ----      ----      ----
11/17 23:00      ----      ----      ----      ----      ----      ----